createdAt,value
2018-10-11T00:00:55.632Z,65.00
2018-10-11T00:03:24.874Z,65.70
2018-10-11T00:05:53.599Z,66.70
2018-10-11T00:08:21.962Z,66.50
2018-10-11T00:14:22.212Z,66.90
2018-10-11T00:16:51.365Z,68.30
2018-10-11T00:19:20.368Z,67.70
2018-10-11T00:21:49.384Z,67.30
2018-10-11T00:24:17.964Z,66.60
2018-10-11T00:26:46.867Z,67.70
2018-10-11T00:29:15.799Z,66.90
2018-10-11T00:31:44.779Z,68.00
2018-10-11T00:34:13.554Z,69.10
2018-10-11T00:36:42.202Z,69.70
2018-10-11T00:39:11.083Z,70.30
2018-10-11T00:41:39.497Z,69.10
2018-10-11T00:44:08.358Z,69.10
2018-10-11T00:46:36.873Z,71.00
2018-10-11T00:49:05.803Z,69.30
2018-10-11T00:51:35.136Z,69.80
2018-10-11T00:54:03.813Z,70.20
2018-10-11T00:56:34.848Z,68.60
2018-10-11T00:59:03.479Z,68.70
2018-10-11T01:01:32.265Z,69.40
2018-10-11T01:04:00.690Z,69.00
2018-10-11T01:06:29.072Z,70.00
2018-10-11T01:08:57.430Z,70.20
2018-10-11T01:11:26.326Z,72.00
2018-10-11T01:13:57.547Z,72.00
2018-10-11T01:16:27.270Z,71.70
2018-10-11T01:18:59.056Z,72.00
2018-10-11T01:21:27.699Z,72.80
2018-10-11T01:23:56.313Z,72.20
2018-10-11T01:26:25.358Z,71.40
2018-10-11T01:28:54.245Z,71.60
2018-10-11T01:31:23.611Z,71.20
2018-10-11T01:33:53.657Z,71.10
2018-10-11T01:36:22.198Z,71.80
2018-10-11T01:38:52.256Z,73.20
2018-10-11T01:41:21.082Z,73.30
2018-10-11T01:43:50.446Z,73.60
2018-10-11T01:46:19.095Z,72.20
2018-10-11T01:48:47.495Z,72.40
2018-10-11T01:51:15.837Z,72.00
2018-10-11T01:53:44.236Z,73.20
2018-10-11T01:56:12.773Z,72.00
2018-10-11T01:58:41.265Z,72.80
2018-10-11T02:01:11.199Z,72.60
2018-10-11T02:03:39.580Z,73.50
2018-10-11T02:06:08.548Z,71.90
2018-10-11T02:08:37.168Z,73.70
2018-10-11T02:11:05.859Z,74.10
2018-10-11T02:13:37.032Z,74.50
2018-10-11T02:16:05.860Z,73.30
2018-10-11T02:18:34.838Z,73.70
2018-10-11T02:21:03.428Z,73.90
2018-10-11T02:23:31.947Z,74.90
2018-10-11T02:26:00.358Z,73.80
2018-10-11T02:28:28.816Z,75.50
2018-10-11T02:30:57.221Z,73.70
2018-10-11T02:33:25.628Z,75.10
2018-10-11T02:35:54.497Z,74.70
2018-10-11T02:38:24.089Z,74.10
2018-10-11T02:40:52.477Z,73.90
2018-10-11T02:43:21.888Z,74.10
2018-10-11T02:45:50.314Z,75.00
2018-10-11T02:48:18.657Z,75.90
2018-10-11T02:50:47.114Z,76.00
2018-10-11T02:53:16.353Z,75.30
2018-10-11T02:55:44.958Z,75.90
2018-10-11T02:58:25.747Z,75.60
2018-10-11T03:00:56.802Z,75.90
2018-10-11T03:03:28.641Z,74.60
2018-10-11T03:06:01.386Z,75.10
2018-10-11T03:08:29.995Z,75.10
2018-10-11T03:10:58.933Z,75.20
2018-10-11T03:13:27.543Z,75.50
2018-10-11T03:15:56.241Z,74.50
2018-10-11T03:18:25.892Z,74.10
2018-10-11T03:20:54.664Z,74.90
2018-10-11T03:23:23.184Z,75.30
2018-10-11T03:25:52.247Z,75.20
2018-10-11T03:28:21.157Z,74.90
2018-10-11T03:30:50.290Z,75.60
2018-10-11T03:33:19.841Z,74.20
2018-10-11T03:35:49.991Z,75.50
2018-10-11T03:38:18.563Z,74.90
2018-10-11T03:40:47.008Z,75.00
2018-10-11T03:43:15.345Z,76.10
2018-10-11T03:45:43.708Z,75.70
2018-10-11T03:48:12.170Z,75.70
2018-10-11T03:50:52.646Z,74.60
2018-10-11T03:53:21.782Z,74.40
2018-10-11T03:55:50.318Z,74.30
2018-10-11T03:58:26.364Z,73.70
2018-10-11T04:00:55.366Z,73.80
2018-10-11T04:03:26.251Z,75.10
2018-10-11T04:05:55.917Z,75.70
2018-10-11T04:08:24.762Z,74.70
2018-10-11T04:10:54.156Z,75.80
2018-10-11T04:13:23.299Z,75.80
2018-10-11T04:15:52.520Z,75.80
2018-10-11T04:18:21.573Z,75.50
2018-10-11T04:20:50.664Z,74.80
2018-10-11T04:23:27.101Z,75.10
2018-10-11T04:25:57.055Z,75.20
2018-10-11T04:28:26.530Z,75.20
2018-10-11T04:30:55.760Z,75.90
2018-10-11T04:33:24.385Z,75.30
2018-10-11T04:35:53.430Z,75.10
2018-10-11T04:38:22.335Z,74.90
2018-10-11T04:40:50.963Z,74.50
2018-10-11T04:43:19.895Z,75.70
2018-10-11T04:45:48.258Z,76.30
2018-10-11T04:48:17.063Z,75.40
2018-10-11T04:50:46.134Z,76.20
2018-10-11T04:53:15.391Z,75.80
2018-10-11T04:55:44.908Z,75.10
2018-10-11T04:58:13.521Z,75.70
2018-10-11T05:00:42.428Z,75.60
2018-10-11T05:03:12.929Z,75.80
2018-10-11T05:05:42.577Z,75.60
2018-10-11T05:08:11.540Z,75.20
2018-10-11T05:10:40.256Z,75.00
2018-10-11T05:13:09.303Z,75.40
2018-10-11T05:15:38.128Z,75.00
2018-10-11T05:18:07.377Z,76.30
2018-10-11T05:20:35.959Z,76.40
2018-10-11T05:23:04.770Z,76.00
2018-10-11T05:25:33.791Z,75.40
2018-10-11T05:28:02.159Z,74.80
2018-10-11T05:30:31.296Z,77.70
2018-10-11T05:32:59.787Z,77.20
2018-10-11T05:35:28.507Z,78.30
2018-10-11T05:37:57.054Z,78.80
2018-10-11T05:40:25.620Z,78.40
2018-10-11T05:42:54.301Z,78.20
2018-10-11T05:45:24.161Z,77.30
2018-10-11T05:47:52.695Z,76.40
2018-10-11T05:50:21.411Z,75.70
2018-10-11T05:52:50.222Z,75.00
2018-10-11T05:55:19.204Z,74.10
2018-10-11T05:57:47.985Z,73.40
2018-10-11T06:00:16.761Z,72.60
2018-10-11T06:02:58.111Z,72.20
2018-10-11T06:05:27.420Z,71.80
2018-10-11T06:07:56.373Z,71.20
2018-10-11T06:10:25.770Z,70.60
2018-10-11T06:12:54.389Z,70.30
2018-10-11T06:15:23.398Z,69.90
2018-10-11T06:17:54.076Z,69.80
2018-10-11T06:20:22.990Z,69.50
2018-10-11T06:22:51.866Z,69.40
2018-10-11T06:25:21.587Z,69.20
2018-10-11T06:27:51.646Z,69.10
2018-10-11T06:30:20.267Z,68.90
2018-10-11T06:32:49.458Z,68.60
2018-10-11T06:35:18.566Z,68.10
2018-10-11T06:37:48.247Z,67.90
2018-10-11T06:40:17.676Z,67.70
2018-10-11T06:42:46.868Z,67.20
2018-10-11T06:45:17.267Z,67.10
2018-10-11T06:47:48.877Z,67.10
2018-10-11T06:50:17.388Z,66.90
2018-10-11T06:52:46.368Z,67.10
2018-10-11T06:55:15.091Z,66.90
2018-10-11T06:57:43.764Z,67.00
2018-10-11T07:00:12.498Z,67.10
2018-10-11T07:02:41.071Z,67.30
2018-10-11T07:05:09.891Z,67.30
2018-10-11T07:07:38.620Z,67.50
2018-10-11T07:10:07.360Z,67.80
2018-10-11T07:12:36.096Z,67.70
2018-10-11T07:15:04.780Z,67.50
2018-10-11T07:17:33.341Z,67.70
2018-10-11T07:20:02.023Z,67.50
2018-10-11T07:22:30.874Z,67.50
2018-10-11T07:24:59.251Z,67.30
2018-10-11T07:27:27.731Z,67.30
2018-10-11T07:29:56.449Z,67.60
2018-10-11T07:32:25.351Z,67.60
2018-10-11T07:34:55.213Z,67.60
2018-10-11T07:37:23.751Z,67.70
2018-10-11T07:39:52.878Z,67.70
2018-10-11T07:42:21.410Z,67.70
2018-10-11T07:44:50.273Z,67.70
2018-10-11T07:47:18.855Z,67.90
2018-10-11T07:49:47.339Z,67.90
2018-10-11T07:52:15.912Z,67.90
2018-10-11T07:54:44.542Z,67.90
2018-10-11T07:57:13.410Z,67.90
2018-10-11T07:59:42.541Z,68.10
2018-10-11T08:02:11.426Z,68.10
2018-10-11T08:04:40.393Z,68.90
2018-10-11T08:07:09.165Z,69.50
2018-10-11T08:09:37.782Z,69.70
2018-10-11T08:12:06.972Z,70.60
2018-10-11T08:14:35.562Z,72.00
2018-10-11T08:17:04.727Z,73.00
2018-10-11T08:19:33.146Z,73.90
2018-10-11T08:22:01.539Z,74.50
2018-10-11T08:24:30.267Z,75.30
2018-10-11T08:26:59.040Z,75.70
2018-10-11T08:29:27.643Z,75.50
2018-10-11T08:31:56.397Z,76.00
2018-10-11T08:34:24.888Z,75.80
2018-10-11T08:36:53.888Z,75.60
2018-10-11T08:39:22.268Z,75.60
2018-10-11T08:41:51.157Z,76.60
2018-10-11T08:44:21.372Z,76.80
2018-10-11T08:46:50.040Z,76.00
2018-10-11T08:49:18.763Z,76.10
2018-10-11T08:51:47.207Z,76.30
2018-10-11T08:54:21.279Z,76.20
2018-10-11T08:56:50.611Z,76.50
2018-10-11T08:59:19.487Z,76.20
2018-10-11T09:01:48.224Z,76.20
2018-10-11T09:04:16.917Z,76.30
2018-10-11T09:06:45.391Z,76.00
2018-10-11T09:09:14.252Z,76.60
2018-10-11T09:11:42.729Z,76.50
2018-10-11T09:14:11.129Z,76.30
2018-10-11T09:16:39.597Z,76.30
2018-10-11T09:19:08.435Z,76.60
2018-10-11T09:21:36.947Z,76.60
2018-10-11T09:24:05.586Z,76.80
2018-10-11T09:26:34.043Z,76.80
2018-10-11T09:29:03.563Z,76.80
2018-10-11T09:31:32.208Z,76.50
2018-10-11T09:34:00.742Z,76.20
2018-10-11T09:36:29.480Z,76.00
2018-10-11T09:38:58.396Z,75.50
2018-10-11T09:41:27.175Z,75.60
2018-10-11T09:43:55.660Z,75.40
2018-10-11T09:46:24.211Z,75.20
2018-10-11T09:48:52.822Z,74.90
2018-10-11T09:51:21.441Z,74.30
2018-10-11T09:53:51.097Z,74.20
2018-10-11T09:56:19.549Z,74.10
2018-10-11T09:58:48.220Z,74.50
2018-10-11T10:01:21.916Z,74.50
2018-10-11T10:03:50.474Z,74.10
2018-10-11T10:06:19.223Z,73.50
2018-10-11T10:08:48.102Z,73.20
2018-10-11T10:11:16.697Z,72.10
2018-10-11T10:13:47.001Z,75.50
2018-10-11T10:16:16.379Z,80.90
2018-10-11T10:18:44.868Z,67.70
2018-10-11T10:21:13.400Z,65.80
2018-10-11T10:23:42.027Z,69.90
2018-10-11T10:26:10.504Z,58.80
2018-10-11T10:28:38.902Z,57.50
2018-10-11T10:31:07.732Z,61.00
2018-10-11T10:33:36.765Z,53.70
2018-10-11T10:36:05.262Z,54.40
2018-10-11T10:38:33.926Z,59.60
2018-10-11T10:41:02.515Z,58.60
2018-10-11T10:43:31.123Z,56.40
2018-10-11T10:45:59.747Z,57.30
2018-10-11T10:48:28.449Z,53.90
2018-10-11T10:50:56.959Z,50.80
2018-10-11T10:53:25.620Z,48.30
2018-10-11T10:55:54.974Z,49.70
2018-10-11T10:58:23.771Z,54.10
2018-10-11T11:01:04.103Z,47.10
2018-10-11T11:03:32.741Z,45.20
2018-10-11T11:06:01.341Z,46.30
2018-10-11T11:08:30.352Z,46.00
2018-10-11T11:10:59.121Z,48.20
2018-10-11T11:13:27.781Z,49.00
2018-10-11T11:15:56.218Z,49.50
2018-10-11T11:18:24.718Z,51.30
2018-10-11T11:20:53.566Z,50.80
2018-10-11T11:23:22.193Z,50.60
2018-10-11T11:25:50.622Z,52.50
2018-10-11T11:28:19.151Z,47.70
2018-10-11T11:30:49.416Z,49.00
2018-10-11T11:33:17.989Z,47.40
2018-10-11T11:35:46.521Z,42.60
2018-10-11T11:38:15.117Z,40.20
2018-10-11T11:40:43.665Z,36.80
2018-10-11T11:43:12.157Z,37.50
2018-10-11T11:45:40.678Z,35.10
2018-10-11T11:48:11.211Z,35.90
2018-10-11T11:50:39.970Z,35.60
2018-10-11T11:53:08.632Z,33.20
2018-10-11T11:55:37.668Z,34.40
2018-10-11T11:58:06.455Z,31.60
2018-10-11T12:00:42.489Z,32.00
2018-10-11T12:03:11.570Z,30.60
2018-10-11T12:05:40.336Z,29.10
2018-10-11T12:08:09.111Z,31.10
2018-10-11T12:10:37.702Z,27.90
2018-10-11T12:13:08.277Z,25.50
2018-10-11T12:15:38.471Z,28.20
2018-10-11T12:18:08.147Z,27.80
2018-10-11T12:20:38.229Z,28.40
2018-10-11T12:23:07.715Z,28.40
2018-10-11T12:25:36.776Z,29.30
2018-10-11T12:28:05.451Z,29.50
2018-10-11T12:30:34.008Z,28.40
2018-10-11T12:33:03.053Z,28.00
2018-10-11T12:35:31.973Z,28.70
2018-10-11T12:38:00.863Z,27.10
2018-10-11T12:40:29.990Z,26.20
2018-10-11T12:42:58.437Z,25.00
2018-10-11T12:45:27.184Z,26.30
2018-10-11T12:47:55.476Z,25.00
2018-10-11T12:50:24.809Z,24.20
2018-10-11T12:52:53.193Z,22.00
2018-10-11T12:55:21.989Z,22.60
2018-10-11T12:57:50.581Z,22.80
2018-10-11T13:00:20.132Z,22.40
2018-10-11T13:02:49.279Z,22.40
2018-10-11T13:05:17.742Z,21.80
2018-10-11T13:07:46.591Z,22.20
2018-10-11T13:10:15.264Z,20.80
2018-10-11T13:12:43.986Z,20.80
2018-10-11T13:15:13.084Z,20.50
2018-10-11T13:17:43.646Z,20.50
2018-10-11T13:20:10.633Z,20.40
2018-10-11T13:22:39.217Z,20.40
2018-10-11T13:25:07.795Z,20.00
2018-10-11T13:27:36.263Z,19.30
2018-10-11T13:30:05.261Z,19.30
2018-10-11T13:32:35.200Z,19.50
2018-10-11T13:35:03.717Z,19.00
2018-10-11T13:37:32.568Z,19.10
2018-10-11T13:40:00.934Z,19.40
2018-10-11T13:42:29.521Z,19.80
2018-10-11T13:44:58.262Z,19.10
2018-10-11T13:47:27.264Z,19.30
2018-10-11T13:49:55.978Z,20.70
2018-10-11T13:52:25.104Z,21.90
2018-10-11T13:54:53.972Z,22.40
2018-10-11T13:57:25.121Z,21.90
2018-10-11T13:59:51.471Z,21.20
2018-10-11T14:02:22.891Z,20.50
2018-10-11T14:05:13.616Z,19.90
2018-10-11T14:07:43.656Z,20.20
2018-10-11T14:10:12.941Z,19.80
2018-10-11T14:12:42.604Z,19.90
2018-10-11T14:15:11.944Z,19.70
2018-10-11T14:17:41.361Z,19.90
2018-10-11T14:20:11.080Z,19.90
2018-10-11T14:22:41.225Z,19.50
2018-10-11T14:25:09.980Z,19.60
2018-10-11T14:27:38.559Z,19.40
2018-10-11T14:30:07.016Z,19.40
2018-10-11T14:32:35.672Z,19.30
2018-10-11T14:35:06.236Z,19.10
2018-10-11T14:37:35.908Z,19.30
2018-10-11T14:40:04.816Z,19.30
2018-10-11T14:42:34.233Z,19.50
2018-10-11T14:45:02.711Z,19.70
2018-10-11T14:47:31.376Z,19.80
2018-10-11T14:49:59.889Z,19.80
2018-10-11T14:52:28.474Z,20.00
2018-10-11T14:54:56.952Z,22.30
2018-10-11T14:57:25.463Z,23.90
2018-10-11T14:59:54.434Z,25.60
2018-10-11T15:02:22.915Z,27.50
2018-10-11T15:04:52.271Z,29.30
2018-10-11T15:07:20.915Z,30.70
2018-10-11T15:09:50.136Z,31.60
2018-10-11T15:12:18.561Z,33.20
2018-10-11T15:14:47.343Z,34.00
2018-10-11T15:17:15.912Z,34.90
2018-10-11T15:19:44.891Z,36.10
2018-10-11T15:22:13.769Z,35.70
2018-10-11T15:24:42.734Z,37.90
2018-10-11T15:27:11.344Z,38.10
2018-10-11T15:29:40.767Z,37.10
2018-10-11T15:32:10.054Z,39.30
2018-10-11T15:34:39.534Z,38.10
2018-10-11T15:37:09.315Z,38.70
2018-10-11T15:39:38.325Z,39.40
2018-10-11T15:42:07.196Z,40.20
2018-10-11T15:44:35.731Z,40.70
2018-10-11T15:47:04.895Z,41.30
2018-10-11T15:49:34.153Z,40.50
2018-10-11T15:52:02.754Z,40.80
2018-10-11T15:54:32.243Z,41.20
2018-10-11T15:57:01.756Z,41.60
2018-10-11T15:59:31.068Z,42.10
2018-10-11T16:02:00.187Z,42.20
2018-10-11T16:04:29.550Z,42.30
2018-10-11T16:06:59.208Z,44.10
2018-10-11T16:09:28.523Z,42.40
2018-10-11T16:11:59.201Z,42.60
2018-10-11T16:14:28.815Z,43.70
2018-10-11T16:16:57.481Z,43.90
2018-10-11T16:19:26.624Z,45.00
2018-10-11T16:21:55.466Z,44.60
2018-10-11T16:24:25.049Z,44.60
2018-10-11T16:26:53.997Z,45.10
2018-10-11T16:29:22.888Z,45.40
2018-10-11T16:31:51.949Z,45.70
2018-10-11T16:34:22.757Z,46.40
2018-10-11T16:36:52.262Z,45.90
2018-10-11T16:39:20.780Z,46.30
2018-10-11T16:41:49.774Z,46.90
2018-10-11T16:44:18.855Z,47.60
2018-10-11T16:46:47.588Z,47.20
2018-10-11T16:49:16.715Z,47.70
2018-10-11T16:51:45.685Z,47.70
2018-10-11T16:54:14.943Z,47.30
2018-10-11T16:56:44.090Z,47.60
2018-10-11T16:59:12.864Z,47.80
2018-10-11T17:01:41.803Z,47.70
2018-10-11T17:04:11.309Z,47.70
2018-10-11T17:06:40.419Z,48.20
2018-10-11T17:09:11.265Z,48.90
2018-10-11T17:11:40.667Z,49.60
2018-10-11T17:14:10.154Z,49.60
2018-10-11T17:16:39.836Z,49.70
2018-10-11T17:19:08.823Z,50.30
2018-10-11T17:21:38.079Z,49.90
2018-10-11T17:24:06.984Z,50.20
2018-10-11T17:26:35.886Z,50.50
2018-10-11T17:29:04.462Z,51.10
2018-10-11T17:31:34.114Z,52.10
2018-10-11T17:34:03.615Z,51.70
2018-10-11T17:36:32.836Z,51.40
2018-10-11T17:39:02.457Z,52.60
2018-10-11T17:41:31.613Z,51.80
2018-10-11T17:44:00.371Z,51.70
2018-10-11T17:46:29.050Z,52.60
2018-10-11T17:48:58.468Z,51.80
2018-10-11T17:51:27.496Z,52.60
2018-10-11T17:53:56.671Z,53.00
2018-10-11T17:56:25.591Z,52.50
2018-10-11T17:58:56.277Z,52.60
2018-10-11T18:01:26.061Z,53.20
2018-10-11T18:03:57.261Z,54.40
2018-10-11T18:06:38.028Z,54.10
2018-10-11T18:09:23.595Z,54.00
2018-10-11T18:11:53.011Z,54.40
2018-10-11T18:14:21.843Z,54.30
2018-10-11T18:16:50.772Z,54.20
2018-10-11T18:19:19.715Z,54.10
2018-10-11T18:21:49.190Z,54.00
2018-10-11T18:24:18.451Z,54.00
2018-10-11T18:26:47.037Z,54.90
2018-10-11T18:29:16.162Z,55.10
2018-10-11T18:31:44.839Z,55.50
2018-10-11T18:34:13.542Z,55.50
2018-10-11T18:36:42.125Z,56.30
2018-10-11T18:39:13.025Z,56.60
2018-10-11T18:41:42.452Z,55.40
2018-10-11T18:44:11.677Z,56.30
2018-10-11T18:46:40.448Z,56.60
2018-10-11T18:49:09.498Z,56.50
2018-10-11T18:51:37.991Z,56.80
2018-10-11T18:54:06.689Z,57.10
2018-10-11T18:56:36.192Z,56.40
2018-10-11T18:59:06.828Z,57.00
2018-10-11T19:01:35.684Z,57.80
2018-10-11T19:04:04.967Z,57.00
2018-10-11T19:06:33.867Z,56.90
2018-10-11T19:09:02.198Z,57.60
2018-10-11T19:11:30.590Z,57.30
2018-10-11T19:13:59.038Z,58.20
2018-10-11T19:16:28.870Z,58.70
2018-10-11T19:18:57.855Z,58.40
2018-10-11T19:21:26.736Z,58.50
2018-10-11T19:23:55.712Z,59.80
2018-10-11T19:26:25.161Z,59.10
2018-10-11T19:28:54.482Z,59.20
2018-10-11T19:31:23.011Z,59.70
2018-10-11T19:33:51.608Z,60.00
2018-10-11T19:36:20.224Z,59.60
2018-10-11T19:38:49.064Z,60.00
2018-10-11T19:41:17.753Z,59.70
2018-10-11T19:43:46.475Z,60.20
2018-10-11T19:46:18.518Z,59.60
2018-10-11T19:48:52.012Z,60.10
2018-10-11T19:51:21.310Z,60.40
2018-10-11T19:53:54.523Z,60.10
2018-10-11T19:56:27.355Z,60.40
2018-10-11T19:58:57.268Z,60.90
2018-10-11T20:01:30.067Z,60.90
2018-10-11T20:04:01.559Z,60.90
2018-10-11T20:06:32.509Z,61.30
2018-10-11T20:09:06.774Z,61.40
2018-10-11T20:11:38.396Z,61.50
2018-10-11T20:14:07.473Z,61.10
2018-10-11T20:16:36.139Z,61.70
2018-10-11T20:19:04.796Z,61.70
2018-10-11T20:21:33.187Z,61.70
2018-10-11T20:24:02.189Z,61.90
2018-10-11T20:26:31.087Z,62.30
2018-10-11T20:29:00.512Z,61.70
2018-10-11T20:31:29.398Z,62.50
2018-10-11T20:33:58.327Z,62.10
2018-10-11T20:36:27.790Z,62.30
2018-10-11T20:38:56.534Z,62.10
2018-10-11T20:41:25.222Z,62.00
2018-10-11T20:43:53.914Z,62.10
2018-10-11T20:46:22.310Z,62.20
2018-10-11T20:48:51.051Z,62.20
2018-10-11T20:51:19.588Z,62.30
2018-10-11T20:53:49.234Z,62.50
2018-10-11T20:56:17.737Z,62.10
2018-10-11T20:58:46.671Z,61.90
2018-10-11T21:01:15.341Z,62.30
2018-10-11T21:03:43.876Z,62.10
2018-10-11T21:06:12.991Z,62.00
2018-10-11T21:08:41.766Z,62.30
2018-10-11T21:11:10.344Z,62.10
2018-10-11T21:13:38.822Z,62.30
2018-10-11T21:16:07.724Z,61.90
2018-10-11T21:18:36.417Z,61.70
2018-10-11T21:21:05.660Z,61.30
2018-10-11T21:23:34.814Z,61.70
2018-10-11T21:26:05.594Z,62.10
2018-10-11T21:28:35.160Z,61.90
2018-10-11T21:31:03.942Z,61.90
2018-10-11T21:33:33.435Z,61.70
2018-10-11T21:36:03.193Z,61.30
2018-10-11T21:38:31.776Z,61.50
2018-10-11T21:41:00.727Z,61.00
2018-10-11T21:43:30.125Z,60.90
2018-10-11T21:45:58.953Z,60.60
2018-10-11T21:48:28.409Z,60.40
2018-10-11T21:50:57.157Z,60.40
2018-10-11T21:53:26.075Z,60.60
2018-10-11T21:55:55.056Z,60.30
2018-10-11T21:58:24.127Z,60.20
2018-10-11T22:00:57.866Z,60.80
2018-10-11T22:03:31.013Z,60.80
2018-10-11T22:05:59.911Z,60.80
2018-10-11T22:08:28.651Z,61.50
2018-10-11T22:10:57.672Z,61.40
2018-10-11T22:13:26.997Z,61.10
2018-10-11T22:15:55.621Z,61.70
2018-10-11T22:18:24.457Z,61.70
2018-10-11T22:20:53.167Z,62.50
2018-10-11T22:23:22.038Z,63.10
2018-10-11T22:25:50.914Z,63.70
2018-10-11T22:28:19.391Z,64.60
2018-10-11T22:30:47.987Z,64.30
2018-10-11T22:33:16.375Z,64.50
2018-10-11T22:35:44.804Z,64.40
2018-10-11T22:38:13.657Z,64.60
2018-10-11T22:40:42.227Z,65.10
2018-10-11T22:43:16.822Z,64.80
2018-10-11T22:45:45.920Z,65.50
2018-10-11T22:48:14.330Z,65.30
2018-10-11T22:50:42.919Z,65.10
2018-10-11T22:53:11.299Z,65.90
2018-10-11T22:55:45.465Z,67.10
2018-10-11T22:58:14.449Z,68.00
2018-10-11T23:00:43.055Z,70.80
2018-10-11T23:03:11.608Z,74.80
2018-10-11T23:05:40.374Z,77.00
2018-10-11T23:08:08.743Z,78.20
2018-10-11T23:10:37.497Z,79.00
2018-10-11T23:13:12.784Z,81.60
2018-10-11T23:15:41.323Z,83.40
2018-10-11T23:18:10.272Z,85.30
2018-10-11T23:20:38.944Z,87.50
2018-10-11T23:23:08.000Z,88.40
2018-10-11T23:25:36.673Z,87.10
2018-10-11T23:28:05.532Z,89.40
2018-10-11T23:30:34.533Z,89.60
2018-10-11T23:33:03.021Z,89.60
2018-10-11T23:35:31.945Z,88.20
2018-10-11T23:38:00.487Z,89.50
2018-10-11T23:40:29.013Z,89.90
2018-10-11T23:42:57.431Z,90.00
2018-10-11T23:45:26.132Z,89.50
2018-10-11T23:47:55.433Z,89.60
2018-10-11T23:50:24.368Z,88.50
2018-10-11T23:52:52.873Z,89.50
2018-10-11T23:55:21.932Z,89.90
2018-10-11T23:57:51.052Z,90.10
